sensor_id;sensor_type;location;lat;lon;timestamp;P1;durP1;ratioP1;P2;durP2;ratioP2
2049;SDS011;8478;49.208;8.806;2023-08-06T00:00:08;4.50;;;4.20;;
2049;SDS011;8478;49.208;8.806;2023-08-06T00:02:34;4.17;;;3.87;;
2049;SDS011;8478;49.208;8.806;2023-08-06T00:05:00;4.13;;;3.90;;
2049;SDS011;8478;49.208;8.806;2023-08-06T00:07:26;4.37;;;4.07;;
2049;SDS011;8478;49.208;8.806;2023-08-06T00:09:52;4.00;;;3.80;;
2049;SDS011;8478;49.208;8.806;2023-08-06T00:12:17;3.90;;;3.60;;
2049;SDS011;8478;49.208;8.806;2023-08-06T00:14:43;4.00;;;3.70;;
2049;SDS011;8478;49.208;8.806;2023-08-06T00:17:09;4.40;;;4.10;;
2049;SDS011;8478;49.208;8.806;2023-08-06T00:19:34;3.80;;;3.57;;
2049;SDS011;8478;49.208;8.806;2023-08-06T00:22:00;4.07;;;3.77;;
2049;SDS011;8478;49.208;8.806;2023-08-06T00:24:27;4.20;;;4.00;;
2049;SDS011;8478;49.208;8.806;2023-08-06T00:26:52;4.07;;;3.87;;
2049;SDS011;8478;49.208;8.806;2023-08-06T00:29:18;4.03;;;3.73;;
2049;SDS011;8478;49.208;8.806;2023-08-06T00:31:44;4.50;;;4.20;;
2049;SDS011;8478;49.208;8.806;2023-08-06T00:34:09;4.73;;;4.33;;
2049;SDS011;8478;49.208;8.806;2023-08-06T00:36:35;4.57;;;4.27;;
2049;SDS011;8478;49.208;8.806;2023-08-06T00:39:01;4.73;;;4.43;;
2049;SDS011;8478;49.208;8.806;2023-08-06T00:41:27;10.90;;;4.67;;
2049;SDS011;8478;49.208;8.806;2023-08-06T00:43:53;4.27;;;4.07;;
2049;SDS011;8478;49.208;8.806;2023-08-06T00:46:19;4.17;;;3.90;;
2049;SDS011;8478;49.208;8.806;2023-08-06T00:48:44;4.17;;;3.97;;
2049;SDS011;8478;49.208;8.806;2023-08-06T00:51:10;4.63;;;4.43;;
2049;SDS011;8478;49.208;8.806;2023-08-06T00:53:37;4.43;;;4.03;;
2049;SDS011;8478;49.208;8.806;2023-08-06T00:56:04;4.30;;;3.97;;
2049;SDS011;8478;49.208;8.806;2023-08-06T00:58:30;4.30;;;4.00;;
2049;SDS011;8478;49.208;8.806;2023-08-06T01:00:56;3.90;;;3.70;;
2049;SDS011;8478;49.208;8.806;2023-08-06T01:03:21;3.60;;;3.40;;
2049;SDS011;8478;49.208;8.806;2023-08-06T01:05:47;4.83;;;4.53;;
2049;SDS011;8478;49.208;8.806;2023-08-06T01:14:08;3.70;;;3.40;;
2049;SDS011;8478;49.208;8.806;2023-08-06T01:16:43;3.93;;;3.73;;
2049;SDS011;8478;49.208;8.806;2023-08-06T01:19:16;4.50;;;4.20;;
2049;SDS011;8478;49.208;8.806;2023-08-06T01:21:42;4.10;;;3.80;;
2049;SDS011;8478;49.208;8.806;2023-08-06T01:24:07;4.10;;;3.90;;
2049;SDS011;8478;49.208;8.806;2023-08-06T01:26:35;3.97;;;3.67;;
2049;SDS011;8478;49.208;8.806;2023-08-06T01:29:10;4.73;;;4.40;;
2049;SDS011;8478;49.208;8.806;2023-08-06T01:31:48;4.60;;;4.20;;
2049;SDS011;8478;49.208;8.806;2023-08-06T01:34:21;5.50;;;4.20;;
2049;SDS011;8478;49.208;8.806;2023-08-06T01:36:50;4.47;;;3.50;;
2049;SDS011;8478;49.208;8.806;2023-08-06T01:39:16;4.40;;;4.20;;
2049;SDS011;8478;49.208;8.806;2023-08-06T01:41:42;5.47;;;4.07;;
2049;SDS011;8478;49.208;8.806;2023-08-06T01:44:07;4.20;;;3.93;;
2049;SDS011;8478;49.208;8.806;2023-08-06T01:46:33;4.40;;;4.00;;
2049;SDS011;8478;49.208;8.806;2023-08-06T01:48:58;4.70;;;4.33;;
2049;SDS011;8478;49.208;8.806;2023-08-06T01:51:24;4.20;;;3.90;;
2049;SDS011;8478;49.208;8.806;2023-08-06T01:53:50;4.23;;;4.03;;
2049;SDS011;8478;49.208;8.806;2023-08-06T01:56:16;4.20;;;4.00;;
2049;SDS011;8478;49.208;8.806;2023-08-06T01:58:41;4.73;;;4.40;;
2049;SDS011;8478;49.208;8.806;2023-08-06T02:01:07;4.60;;;4.30;;
2049;SDS011;8478;49.208;8.806;2023-08-06T02:03:32;3.97;;;3.77;;
2049;SDS011;8478;49.208;8.806;2023-08-06T02:05:58;4.20;;;3.90;;
2049;SDS011;8478;49.208;8.806;2023-08-06T02:08:24;4.57;;;4.27;;
2049;SDS011;8478;49.208;8.806;2023-08-06T02:10:49;4.33;;;3.93;;
2049;SDS011;8478;49.208;8.806;2023-08-06T02:13:15;4.10;;;3.90;;
2049;SDS011;8478;49.208;8.806;2023-08-06T02:15:44;5.93;;;4.43;;
2049;SDS011;8478;49.208;8.806;2023-08-06T02:18:13;4.70;;;4.40;;
2049;SDS011;8478;49.208;8.806;2023-08-06T02:20:40;4.00;;;3.80;;
2049;SDS011;8478;49.208;8.806;2023-08-06T02:23:05;4.53;;;4.23;;
2049;SDS011;8478;49.208;8.806;2023-08-06T02:25:31;4.40;;;4.10;;
2049;SDS011;8478;49.208;8.806;2023-08-06T02:27:57;4.03;;;3.73;;
2049;SDS011;8478;49.208;8.806;2023-08-06T02:30:22;4.43;;;4.13;;
2049;SDS011;8478;49.208;8.806;2023-08-06T02:32:48;4.20;;;3.90;;
2049;SDS011;8478;49.208;8.806;2023-08-06T02:35:14;3.97;;;3.77;;
2049;SDS011;8478;49.208;8.806;2023-08-06T02:37:39;4.07;;;3.87;;
2049;SDS011;8478;49.208;8.806;2023-08-06T02:40:05;4.13;;;3.83;;
2049;SDS011;8478;49.208;8.806;2023-08-06T02:42:31;4.93;;;4.30;;
2049;SDS011;8478;49.208;8.806;2023-08-06T02:44:57;3.60;;;3.40;;
2049;SDS011;8478;49.208;8.806;2023-08-06T02:47:23;3.50;;;3.30;;
2049;SDS011;8478;49.208;8.806;2023-08-06T02:49:49;4.53;;;4.23;;
2049;SDS011;8478;49.208;8.806;2023-08-06T02:52:14;4.57;;;4.17;;
2049;SDS011;8478;49.208;8.806;2023-08-06T02:54:40;3.70;;;3.50;;
2049;SDS011;8478;49.208;8.806;2023-08-06T02:57:06;3.57;;;3.37;;
2049;SDS011;8478;49.208;8.806;2023-08-06T02:59:32;4.37;;;4.07;;
2049;SDS011;8478;49.208;8.806;2023-08-06T03:01:58;3.80;;;3.60;;
2049;SDS011;8478;49.208;8.806;2023-08-06T03:04:24;4.33;;;4.03;;
2049;SDS011;8478;49.208;8.806;2023-08-06T03:06:50;3.90;;;3.70;;
2049;SDS011;8478;49.208;8.806;2023-08-06T03:09:16;4.13;;;3.73;;
2049;SDS011;8478;49.208;8.806;2023-08-06T03:11:42;4.03;;;3.73;;
2049;SDS011;8478;49.208;8.806;2023-08-06T03:14:08;4.73;;;4.37;;
2049;SDS011;8478;49.208;8.806;2023-08-06T03:16:34;3.97;;;3.67;;
2049;SDS011;8478;49.208;8.806;2023-08-06T03:19:00;4.13;;;3.83;;
2049;SDS011;8478;49.208;8.806;2023-08-06T03:21:25;3.60;;;3.37;;
2049;SDS011;8478;49.208;8.806;2023-08-06T03:23:51;4.17;;;3.73;;
2049;SDS011;8478;49.208;8.806;2023-08-06T03:26:17;4.17;;;3.87;;
2049;SDS011;8478;49.208;8.806;2023-08-06T03:28:42;7.60;;;4.27;;
2049;SDS011;8478;49.208;8.806;2023-08-06T03:31:08;3.73;;;3.53;;
2049;SDS011;8478;49.208;8.806;2023-08-06T03:33:34;4.00;;;3.70;;
2049;SDS011;8478;49.208;8.806;2023-08-06T03:35:59;4.50;;;4.20;;
2049;SDS011;8478;49.208;8.806;2023-08-06T03:38:25;4.03;;;3.63;;
2049;SDS011;8478;49.208;8.806;2023-08-06T03:40:51;3.80;;;3.50;;
2049;SDS011;8478;49.208;8.806;2023-08-06T03:43:16;3.97;;;3.60;;
2049;SDS011;8478;49.208;8.806;2023-08-06T03:45:42;3.90;;;3.60;;
2049;SDS011;8478;49.208;8.806;2023-08-06T03:48:08;4.33;;;4.00;;
2049;SDS011;8478;49.208;8.806;2023-08-06T03:50:34;4.97;;;4.50;;
2049;SDS011;8478;49.208;8.806;2023-08-06T03:53:00;4.00;;;3.60;;
2049;SDS011;8478;49.208;8.806;2023-08-06T03:55:25;4.40;;;4.00;;
2049;SDS011;8478;49.208;8.806;2023-08-06T03:57:51;4.07;;;3.77;;
2049;SDS011;8478;49.208;8.806;2023-08-06T04:00:17;4.17;;;3.87;;
2049;SDS011;8478;49.208;8.806;2023-08-06T04:02:43;3.67;;;3.37;;
2049;SDS011;8478;49.208;8.806;2023-08-06T04:05:08;3.73;;;3.43;;
2049;SDS011;8478;49.208;8.806;2023-08-06T04:07:34;3.80;;;3.60;;
2049;SDS011;8478;49.208;8.806;2023-08-06T04:10:01;4.20;;;3.80;;
2049;SDS011;8478;49.208;8.806;2023-08-06T04:12:28;3.50;;;3.30;;
2049;SDS011;8478;49.208;8.806;2023-08-06T04:14:54;3.90;;;3.60;;
2049;SDS011;8478;49.208;8.806;2023-08-06T04:17:21;3.63;;;3.17;;
2049;SDS011;8478;49.208;8.806;2023-08-06T04:19:50;3.93;;;3.60;;
2049;SDS011;8478;49.208;8.806;2023-08-06T04:22:16;3.83;;;3.50;;
2049;SDS011;8478;49.208;8.806;2023-08-06T04:24:43;4.40;;;4.00;;
2049;SDS011;8478;49.208;8.806;2023-08-06T04:27:12;3.63;;;3.43;;
2049;SDS011;8478;49.208;8.806;2023-08-06T04:29:39;4.30;;;3.97;;
2049;SDS011;8478;49.208;8.806;2023-08-06T04:32:05;3.70;;;3.07;;
2049;SDS011;8478;49.208;8.806;2023-08-06T04:34:33;3.47;;;3.27;;
2049;SDS011;8478;49.208;8.806;2023-08-06T04:37:00;3.70;;;3.40;;
2049;SDS011;8478;49.208;8.806;2023-08-06T04:39:26;3.30;;;3.00;;
2049;SDS011;8478;49.208;8.806;2023-08-06T04:41:52;3.97;;;3.67;;
2049;SDS011;8478;49.208;8.806;2023-08-06T04:44:18;3.40;;;3.10;;
2049;SDS011;8478;49.208;8.806;2023-08-06T04:46:44;3.37;;;3.03;;
2049;SDS011;8478;49.208;8.806;2023-08-06T04:49:09;4.00;;;3.70;;
2049;SDS011;8478;49.208;8.806;2023-08-06T04:51:35;4.23;;;3.30;;
2049;SDS011;8478;49.208;8.806;2023-08-06T04:54:01;3.37;;;3.13;;
2049;SDS011;8478;49.208;8.806;2023-08-06T04:56:26;4.47;;;2.65;;
2049;SDS011;8478;49.208;8.806;2023-08-06T04:58:52;3.30;;;3.00;;
2049;SDS011;8478;49.208;8.806;2023-08-06T05:01:18;3.10;;;2.90;;
2049;SDS011;8478;49.208;8.806;2023-08-06T05:03:44;3.30;;;3.07;;
2049;SDS011;8478;49.208;8.806;2023-08-06T05:06:09;3.77;;;3.47;;
2049;SDS011;8478;49.208;8.806;2023-08-06T05:08:35;4.30;;;3.40;;
2049;SDS011;8478;49.208;8.806;2023-08-06T05:11:01;4.10;;;2.67;;
2049;SDS011;8478;49.208;8.806;2023-08-06T05:13:27;3.53;;;3.23;;
2049;SDS011;8478;49.208;8.806;2023-08-06T05:15:53;3.33;;;3.07;;
2049;SDS011;8478;49.208;8.806;2023-08-06T05:18:19;3.30;;;3.10;;
2049;SDS011;8478;49.208;8.806;2023-08-06T05:20:45;4.43;;;3.77;;
2049;SDS011;8478;49.208;8.806;2023-08-06T05:23:11;4.77;;;3.80;;
2049;SDS011;8478;49.208;8.806;2023-08-06T05:25:39;3.17;;;2.90;;
2049;SDS011;8478;49.208;8.806;2023-08-06T05:28:05;3.17;;;2.97;;
2049;SDS011;8478;49.208;8.806;2023-08-06T05:30:31;3.37;;;3.10;;
2049;SDS011;8478;49.208;8.806;2023-08-06T05:32:57;3.10;;;2.60;;
2049;SDS011;8478;49.208;8.806;2023-08-06T05:35:23;3.50;;;3.20;;
2049;SDS011;8478;49.208;8.806;2023-08-06T05:37:52;3.43;;;3.13;;
2049;SDS011;8478;49.208;8.806;2023-08-06T05:40:18;3.10;;;2.90;;
2049;SDS011;8478;49.208;8.806;2023-08-06T05:42:44;3.80;;;2.53;;
2049;SDS011;8478;49.208;8.806;2023-08-06T05:45:09;3.50;;;3.20;;
2049;SDS011;8478;49.208;8.806;2023-08-06T05:47:35;3.27;;;2.97;;
2049;SDS011;8478;49.208;8.806;2023-08-06T05:50:01;3.73;;;3.23;;
2049;SDS011;8478;49.208;8.806;2023-08-06T05:52:26;3.00;;;2.77;;
2049;SDS011;8478;49.208;8.806;2023-08-06T05:54:52;6.40;;;3.20;;
2049;SDS011;8478;49.208;8.806;2023-08-06T05:57:18;2.90;;;2.00;;
2049;SDS011;8478;49.208;8.806;2023-08-06T05:59:43;3.60;;;3.30;;
2049;SDS011;8478;49.208;8.806;2023-08-06T06:02:09;3.20;;;3.00;;
2049;SDS011;8478;49.208;8.806;2023-08-06T06:04:35;3.10;;;2.80;;
2049;SDS011;8478;49.208;8.806;2023-08-06T06:07:01;4.13;;;3.00;;
2049;SDS011;8478;49.208;8.806;2023-08-06T06:09:27;3.20;;;2.90;;
2049;SDS011;8478;49.208;8.806;2023-08-06T06:11:53;2.80;;;2.70;;
2049;SDS011;8478;49.208;8.806;2023-08-06T06:14:18;2.90;;;2.70;;
2049;SDS011;8478;49.208;8.806;2023-08-06T06:16:44;3.10;;;2.80;;
2049;SDS011;8478;49.208;8.806;2023-08-06T06:19:11;4.53;;;3.17;;
2049;SDS011;8478;49.208;8.806;2023-08-06T06:21:37;2.80;;;2.50;;
2049;SDS011;8478;49.208;8.806;2023-08-06T06:24:04;2.40;;;2.30;;
2049;SDS011;8478;49.208;8.806;2023-08-06T06:26:30;4.90;;;2.97;;
2049;SDS011;8478;49.208;8.806;2023-08-06T06:28:57;2.80;;;2.60;;
2049;SDS011;8478;49.208;8.806;2023-08-06T06:31:22;3.37;;;2.97;;
2049;SDS011;8478;49.208;8.806;2023-08-06T06:33:48;2.97;;;2.73;;
2049;SDS011;8478;49.208;8.806;2023-08-06T06:36:14;2.83;;;2.63;;
2049;SDS011;8478;49.208;8.806;2023-08-06T06:38:39;3.10;;;2.90;;
2049;SDS011;8478;49.208;8.806;2023-08-06T06:41:05;3.23;;;2.50;;
2049;SDS011;8478;49.208;8.806;2023-08-06T06:43:32;2.70;;;2.20;;
2049;SDS011;8478;49.208;8.806;2023-08-06T06:45:58;3.10;;;2.90;;
2049;SDS011;8478;49.208;8.806;2023-08-06T06:48:25;3.33;;;2.50;;
2049;SDS011;8478;49.208;8.806;2023-08-06T06:50:54;3.60;;;3.30;;
2049;SDS011;8478;49.208;8.806;2023-08-06T06:53:21;2.40;;;2.23;;
2049;SDS011;8478;49.208;8.806;2023-08-06T06:55:52;2.63;;;2.43;;
2049;SDS011;8478;49.208;8.806;2023-08-06T06:58:18;3.20;;;3.00;;
2049;SDS011;8478;49.208;8.806;2023-08-06T07:00:45;2.70;;;2.53;;
2049;SDS011;8478;49.208;8.806;2023-08-06T07:03:11;2.70;;;2.60;;
2049;SDS011;8478;49.208;8.806;2023-08-06T07:05:37;2.90;;;2.70;;
2049;SDS011;8478;49.208;8.806;2023-08-06T07:08:02;2.63;;;2.50;;
2049;SDS011;8478;49.208;8.806;2023-08-06T07:10:28;8.37;;;3.27;;
2049;SDS011;8478;49.208;8.806;2023-08-06T07:12:54;2.90;;;2.50;;
2049;SDS011;8478;49.208;8.806;2023-08-06T07:15:19;3.80;;;2.33;;
2049;SDS011;8478;49.208;8.806;2023-08-06T07:17:45;3.03;;;2.53;;
2049;SDS011;8478;49.208;8.806;2023-08-06T07:20:11;3.10;;;2.67;;
2049;SDS011;8478;49.208;8.806;2023-08-06T07:22:36;2.23;;;2.00;;
2049;SDS011;8478;49.208;8.806;2023-08-06T07:25:02;2.70;;;2.50;;
2049;SDS011;8478;49.208;8.806;2023-08-06T07:27:28;2.63;;;2.50;;
2049;SDS011;8478;49.208;8.806;2023-08-06T07:29:54;2.33;;;2.13;;
2049;SDS011;8478;49.208;8.806;2023-08-06T07:32:19;2.43;;;2.33;;
2049;SDS011;8478;49.208;8.806;2023-08-06T07:34:45;2.70;;;2.23;;
2049;SDS011;8478;49.208;8.806;2023-08-06T07:37:10;2.60;;;2.30;;
2049;SDS011;8478;49.208;8.806;2023-08-06T07:39:36;2.30;;;2.20;;
2049;SDS011;8478;49.208;8.806;2023-08-06T07:42:04;2.10;;;2.00;;
2049;SDS011;8478;49.208;8.806;2023-08-06T07:44:32;2.50;;;2.30;;
2049;SDS011;8478;49.208;8.806;2023-08-06T07:46:57;2.20;;;2.10;;
2049;SDS011;8478;49.208;8.806;2023-08-06T07:49:23;2.27;;;2.00;;
2049;SDS011;8478;49.208;8.806;2023-08-06T07:51:49;2.67;;;2.40;;
2049;SDS011;8478;49.208;8.806;2023-08-06T07:54:16;2.70;;;2.30;;
2049;SDS011;8478;49.208;8.806;2023-08-06T07:56:42;2.30;;;2.20;;
2049;SDS011;8478;49.208;8.806;2023-08-06T07:59:08;2.30;;;2.20;;
2049;SDS011;8478;49.208;8.806;2023-08-06T08:01:34;2.20;;;2.10;;
2049;SDS011;8478;49.208;8.806;2023-08-06T08:04:00;2.40;;;1.40;;
2049;SDS011;8478;49.208;8.806;2023-08-06T08:06:25;3.97;;;2.40;;
2049;SDS011;8478;49.208;8.806;2023-08-06T08:08:51;1.93;;;1.77;;
2049;SDS011;8478;49.208;8.806;2023-08-06T08:11:17;3.03;;;2.10;;
2049;SDS011;8478;49.208;8.806;2023-08-06T08:13:43;2.20;;;2.10;;
2049;SDS011;8478;49.208;8.806;2023-08-06T08:16:09;2.20;;;2.10;;
2049;SDS011;8478;49.208;8.806;2023-08-06T08:18:35;2.33;;;2.23;;
2049;SDS011;8478;49.208;8.806;2023-08-06T08:21:00;2.27;;;2.17;;
2049;SDS011;8478;49.208;8.806;2023-08-06T08:23:26;2.70;;;2.60;;
2049;SDS011;8478;49.208;8.806;2023-08-06T08:25:52;2.10;;;1.90;;
2049;SDS011;8478;49.208;8.806;2023-08-06T08:28:17;1.90;;;1.20;;
2049;SDS011;8478;49.208;8.806;2023-08-06T08:30:43;2.70;;;2.10;;
2049;SDS011;8478;49.208;8.806;2023-08-06T08:33:09;2.00;;;1.90;;
2049;SDS011;8478;49.208;8.806;2023-08-06T08:35:36;2.20;;;2.10;;
2049;SDS011;8478;49.208;8.806;2023-08-06T08:38:02;2.30;;;2.20;;
2049;SDS011;8478;49.208;8.806;2023-08-06T08:40:29;2.63;;;2.53;;
2049;SDS011;8478;49.208;8.806;2023-08-06T08:42:58;2.00;;;1.90;;
2049;SDS011;8478;49.208;8.806;2023-08-06T08:45:26;2.57;;;2.37;;
2049;SDS011;8478;49.208;8.806;2023-08-06T08:47:53;2.13;;;2.03;;
2049;SDS011;8478;49.208;8.806;2023-08-06T08:50:19;2.60;;;2.40;;
2049;SDS011;8478;49.208;8.806;2023-08-06T08:52:46;2.10;;;2.00;;
2049;SDS011;8478;49.208;8.806;2023-08-06T08:55:14;2.40;;;2.20;;
2049;SDS011;8478;49.208;8.806;2023-08-06T08:57:40;2.40;;;2.30;;
2049;SDS011;8478;49.208;8.806;2023-08-06T09:00:06;2.20;;;2.10;;
2049;SDS011;8478;49.208;8.806;2023-08-06T09:02:32;2.00;;;1.90;;
2049;SDS011;8478;49.208;8.806;2023-08-06T09:04:59;2.33;;;2.20;;
2049;SDS011;8478;49.208;8.806;2023-08-06T09:07:27;2.23;;;2.13;;
2049;SDS011;8478;49.208;8.806;2023-08-06T09:10:01;2.80;;;2.10;;
2049;SDS011;8478;49.208;8.806;2023-08-06T09:12:30;2.40;;;2.30;;
2049;SDS011;8478;49.208;8.806;2023-08-06T09:14:57;2.00;;;1.90;;
2049;SDS011;8478;49.208;8.806;2023-08-06T09:17:22;2.17;;;2.07;;
2049;SDS011;8478;49.208;8.806;2023-08-06T09:19:49;2.40;;;2.30;;
2049;SDS011;8478;49.208;8.806;2023-08-06T09:22:14;2.00;;;1.90;;
2049;SDS011;8478;49.208;8.806;2023-08-06T09:24:41;2.00;;;1.90;;
2049;SDS011;8478;49.208;8.806;2023-08-06T09:27:10;2.10;;;2.00;;
2049;SDS011;8478;49.208;8.806;2023-08-06T09:29:40;1.10;;;1.00;;
2049;SDS011;8478;49.208;8.806;2023-08-06T09:32:10;2.13;;;2.03;;
2049;SDS011;8478;49.208;8.806;2023-08-06T09:34:41;2.27;;;2.17;;
2049;SDS011;8478;49.208;8.806;2023-08-06T09:37:08;2.50;;;2.40;;
2049;SDS011;8478;49.208;8.806;2023-08-06T09:39:38;2.37;;;2.27;;
2049;SDS011;8478;49.208;8.806;2023-08-06T09:42:08;3.57;;;2.73;;
2049;SDS011;8478;49.208;8.806;2023-08-06T09:44:33;2.70;;;2.60;;
2049;SDS011;8478;49.208;8.806;2023-08-06T09:47:00;2.33;;;2.13;;
2049;SDS011;8478;49.208;8.806;2023-08-06T09:52:11;2.20;;;2.10;;
2049;SDS011;8478;49.208;8.806;2023-08-06T09:54:38;2.17;;;2.07;;
2049;SDS011;8478;49.208;8.806;2023-08-06T09:57:04;2.60;;;2.40;;
2049;SDS011;8478;49.208;8.806;2023-08-06T09:59:30;2.53;;;2.33;;
2049;SDS011;8478;49.208;8.806;2023-08-06T10:01:57;2.50;;;2.30;;
2049;SDS011;8478;49.208;8.806;2023-08-06T10:04:23;2.30;;;2.20;;
2049;SDS011;8478;49.208;8.806;2023-08-06T10:06:49;2.20;;;2.10;;
2049;SDS011;8478;49.208;8.806;2023-08-06T10:09:15;2.20;;;2.10;;
2049;SDS011;8478;49.208;8.806;2023-08-06T10:11:42;2.73;;;1.90;;
2049;SDS011;8478;49.208;8.806;2023-08-06T10:14:20;2.30;;;2.20;;
2049;SDS011;8478;49.208;8.806;2023-08-06T10:16:51;2.27;;;2.17;;
2049;SDS011;8478;49.208;8.806;2023-08-06T10:19:17;2.70;;;2.50;;
2049;SDS011;8478;49.208;8.806;2023-08-06T10:29:56;2.10;;;2.00;;
2049;SDS011;8478;49.208;8.806;2023-08-06T10:32:48;1.90;;;1.80;;
2049;SDS011;8478;49.208;8.806;2023-08-06T10:38:07;2.33;;;2.23;;
2049;SDS011;8478;49.208;8.806;2023-08-06T10:40:42;2.10;;;2.00;;
2049;SDS011;8478;49.208;8.806;2023-08-06T10:43:30;2.13;;;2.03;;
2049;SDS011;8478;49.208;8.806;2023-08-06T10:46:04;2.30;;;2.20;;
2049;SDS011;8478;49.208;8.806;2023-08-06T10:48:35;2.30;;;2.20;;
2049;SDS011;8478;49.208;8.806;2023-08-06T10:51:09;1.93;;;1.83;;
2049;SDS011;8478;49.208;8.806;2023-08-06T10:53:36;2.23;;;1.80;;
2049;SDS011;8478;49.208;8.806;2023-08-06T10:56:11;2.03;;;1.93;;
2049;SDS011;8478;49.208;8.806;2023-08-06T10:58:38;2.20;;;2.10;;
2049;SDS011;8478;49.208;8.806;2023-08-06T11:01:04;2.27;;;2.17;;
2049;SDS011;8478;49.208;8.806;2023-08-06T11:03:31;1.93;;;1.83;;
2049;SDS011;8478;49.208;8.806;2023-08-06T11:05:58;2.47;;;2.27;;
2049;SDS011;8478;49.208;8.806;2023-08-06T11:08:27;2.30;;;2.20;;
2049;SDS011;8478;49.208;8.806;2023-08-06T11:10:53;2.33;;;2.23;;
2049;SDS011;8478;49.208;8.806;2023-08-06T11:13:22;2.30;;;2.20;;
2049;SDS011;8478;49.208;8.806;2023-08-06T11:15:48;2.27;;;2.17;;
2049;SDS011;8478;49.208;8.806;2023-08-06T11:18:13;2.17;;;2.07;;
2049;SDS011;8478;49.208;8.806;2023-08-06T11:20:39;2.47;;;2.37;;
2049;SDS011;8478;49.208;8.806;2023-08-06T11:23:05;2.90;;;2.13;;
2049;SDS011;8478;49.208;8.806;2023-08-06T11:25:35;2.80;;;2.60;;
2049;SDS011;8478;49.208;8.806;2023-08-06T11:28:02;2.40;;;2.30;;
2049;SDS011;8478;49.208;8.806;2023-08-06T11:30:28;2.90;;;2.80;;
2049;SDS011;8478;49.208;8.806;2023-08-06T11:32:53;2.63;;;2.53;;
2049;SDS011;8478;49.208;8.806;2023-08-06T11:35:19;2.67;;;2.57;;
2049;SDS011;8478;49.208;8.806;2023-08-06T11:37:45;3.10;;;2.90;;
2049;SDS011;8478;49.208;8.806;2023-08-06T11:40:11;2.47;;;2.37;;
2049;SDS011;8478;49.208;8.806;2023-08-06T11:42:37;2.77;;;2.67;;
2049;SDS011;8478;49.208;8.806;2023-08-06T11:45:03;2.90;;;2.70;;
2049;SDS011;8478;49.208;8.806;2023-08-06T11:47:30;3.23;;;3.03;;
2049;SDS011;8478;49.208;8.806;2023-08-06T11:49:55;2.80;;;2.60;;
2049;SDS011;8478;49.208;8.806;2023-08-06T11:52:22;3.33;;;3.13;;
2049;SDS011;8478;49.208;8.806;2023-08-06T11:55:05;3.10;;;2.90;;
2049;SDS011;8478;49.208;8.806;2023-08-06T11:57:33;3.30;;;3.10;;
2049;SDS011;8478;49.208;8.806;2023-08-06T12:00:05;3.27;;;3.07;;
2049;SDS011;8478;49.208;8.806;2023-08-06T12:02:43;3.50;;;3.30;;
2049;SDS011;8478;49.208;8.806;2023-08-06T12:05:17;3.07;;;2.87;;
2049;SDS011;8478;49.208;8.806;2023-08-06T12:07:49;2.90;;;2.70;;
2049;SDS011;8478;49.208;8.806;2023-08-06T12:10:17;3.63;;;3.40;;
2049;SDS011;8478;49.208;8.806;2023-08-06T12:12:44;2.73;;;2.53;;
2049;SDS011;8478;49.208;8.806;2023-08-06T12:15:10;3.73;;;3.47;;
2049;SDS011;8478;49.208;8.806;2023-08-06T12:17:36;3.77;;;3.57;;
2049;SDS011;8478;49.208;8.806;2023-08-06T12:20:03;3.27;;;3.07;;
2049;SDS011;8478;49.208;8.806;2023-08-06T12:22:29;3.67;;;3.30;;
2049;SDS011;8478;49.208;8.806;2023-08-06T12:25:03;2.90;;;2.80;;
2049;SDS011;8478;49.208;8.806;2023-08-06T12:27:36;3.73;;;3.53;;
2049;SDS011;8478;49.208;8.806;2023-08-06T12:30:03;3.50;;;3.30;;
2049;SDS011;8478;49.208;8.806;2023-08-06T12:32:30;3.67;;;3.47;;
2049;SDS011;8478;49.208;8.806;2023-08-06T12:34:55;3.77;;;3.47;;
2049;SDS011;8478;49.208;8.806;2023-08-06T12:37:21;3.57;;;3.30;;
2049;SDS011;8478;49.208;8.806;2023-08-06T12:39:48;2.97;;;2.78;;
2049;SDS011;8478;49.208;8.806;2023-08-06T12:42:13;3.67;;;3.47;;
2049;SDS011;8478;49.208;8.806;2023-08-06T12:44:39;4.63;;;3.60;;
2049;SDS011;8478;49.208;8.806;2023-08-06T12:47:06;4.10;;;3.80;;
2049;SDS011;8478;49.208;8.806;2023-08-06T12:49:32;3.57;;;3.30;;
2049;SDS011;8478;49.208;8.806;2023-08-06T12:51:58;3.23;;;3.03;;
2049;SDS011;8478;49.208;8.806;2023-08-06T12:54:27;3.13;;;2.60;;
2049;SDS011;8478;49.208;8.806;2023-08-06T12:56:53;3.90;;;3.70;;
2049;SDS011;8478;49.208;8.806;2023-08-06T12:59:19;3.50;;;3.30;;
2049;SDS011;8478;49.208;8.806;2023-08-06T13:01:44;4.13;;;3.73;;
2049;SDS011;8478;49.208;8.806;2023-08-06T13:04:10;3.80;;;3.50;;
2049;SDS011;8478;49.208;8.806;2023-08-06T13:06:37;4.10;;;3.80;;
2049;SDS011;8478;49.208;8.806;2023-08-06T13:09:04;3.87;;;3.67;;
2049;SDS011;8478;49.208;8.806;2023-08-06T13:11:31;4.07;;;3.77;;
2049;SDS011;8478;49.208;8.806;2023-08-06T13:14:03;4.93;;;3.90;;
2049;SDS011;8478;49.208;8.806;2023-08-06T13:16:30;4.63;;;4.23;;
2049;SDS011;8478;49.208;8.806;2023-08-06T13:18:56;4.17;;;3.87;;
2049;SDS011;8478;49.208;8.806;2023-08-06T13:21:21;4.40;;;4.10;;
2049;SDS011;8478;49.208;8.806;2023-08-06T13:23:47;4.30;;;3.90;;
2049;SDS011;8478;49.208;8.806;2023-08-06T13:26:13;4.00;;;3.70;;
2049;SDS011;8478;49.208;8.806;2023-08-06T13:28:40;4.30;;;3.90;;
2049;SDS011;8478;49.208;8.806;2023-08-06T13:31:06;5.40;;;3.90;;
2049;SDS011;8478;49.208;8.806;2023-08-06T13:33:32;3.90;;;3.60;;
2049;SDS011;8478;49.208;8.806;2023-08-06T13:35:58;4.03;;;3.73;;
2049;SDS011;8478;49.208;8.806;2023-08-06T13:38:23;4.53;;;4.00;;
2049;SDS011;8478;49.208;8.806;2023-08-06T13:40:49;3.47;;;3.27;;
2049;SDS011;8478;49.208;8.806;2023-08-06T13:43:15;4.00;;;3.70;;
2049;SDS011;8478;49.208;8.806;2023-08-06T13:45:42;3.80;;;3.60;;
2049;SDS011;8478;49.208;8.806;2023-08-06T13:48:08;3.97;;;3.60;;
2049;SDS011;8478;49.208;8.806;2023-08-06T13:50:35;3.60;;;3.40;;
2049;SDS011;8478;49.208;8.806;2023-08-06T13:53:02;4.50;;;4.20;;
2049;SDS011;8478;49.208;8.806;2023-08-06T13:55:28;3.87;;;3.47;;
2049;SDS011;8478;49.208;8.806;2023-08-06T13:57:53;3.70;;;3.40;;
2049;SDS011;8478;49.208;8.806;2023-08-06T14:00:19;3.60;;;3.40;;
2049;SDS011;8478;49.208;8.806;2023-08-06T14:02:45;4.30;;;4.00;;
2049;SDS011;8478;49.208;8.806;2023-08-06T14:05:10;3.20;;;3.00;;
2049;SDS011;8478;49.208;8.806;2023-08-06T14:07:36;3.33;;;3.13;;
2049;SDS011;8478;49.208;8.806;2023-08-06T14:10:02;3.83;;;3.53;;
2049;SDS011;8478;49.208;8.806;2023-08-06T14:12:28;3.30;;;3.10;;
2049;SDS011;8478;49.208;8.806;2023-08-06T14:14:53;3.40;;;3.20;;
2049;SDS011;8478;49.208;8.806;2023-08-06T14:17:19;3.23;;;3.03;;
2049;SDS011;8478;49.208;8.806;2023-08-06T14:19:45;3.10;;;2.90;;
2049;SDS011;8478;49.208;8.806;2023-08-06T14:22:10;3.40;;;3.20;;
2049;SDS011;8478;49.208;8.806;2023-08-06T14:24:37;3.00;;;2.80;;
2049;SDS011;8478;49.208;8.806;2023-08-06T14:27:03;3.10;;;2.90;;
2049;SDS011;8478;49.208;8.806;2023-08-06T14:29:31;2.67;;;2.57;;
2049;SDS011;8478;49.208;8.806;2023-08-06T14:31:56;3.23;;;3.03;;
2049;SDS011;8478;49.208;8.806;2023-08-06T14:34:22;3.20;;;2.70;;
2049;SDS011;8478;49.208;8.806;2023-08-06T14:36:48;2.50;;;2.30;;
2049;SDS011;8478;49.208;8.806;2023-08-06T14:39:13;3.20;;;2.50;;
2049;SDS011;8478;49.208;8.806;2023-08-06T14:41:39;2.90;;;2.80;;
2049;SDS011;8478;49.208;8.806;2023-08-06T14:44:05;2.97;;;2.77;;
2049;SDS011;8478;49.208;8.806;2023-08-06T14:46:32;3.27;;;3.00;;
2049;SDS011;8478;49.208;8.806;2023-08-06T14:48:58;2.90;;;2.70;;
2049;SDS011;8478;49.208;8.806;2023-08-06T14:51:23;3.17;;;2.97;;
2049;SDS011;8478;49.208;8.806;2023-08-06T14:53:49;3.20;;;2.90;;
2049;SDS011;8478;49.208;8.806;2023-08-06T14:56:15;2.87;;;2.77;;
2049;SDS011;8478;49.208;8.806;2023-08-06T14:58:41;3.10;;;2.90;;
2049;SDS011;8478;49.208;8.806;2023-08-06T15:01:07;3.10;;;2.93;;
2049;SDS011;8478;49.208;8.806;2023-08-06T15:03:33;2.60;;;2.50;;
2049;SDS011;8478;49.208;8.806;2023-08-06T15:05:59;3.27;;;3.07;;
2049;SDS011;8478;49.208;8.806;2023-08-06T15:08:24;3.00;;;2.80;;
2049;SDS011;8478;49.208;8.806;2023-08-06T15:10:50;3.20;;;3.00;;
2049;SDS011;8478;49.208;8.806;2023-08-06T15:13:17;2.25;;;2.03;;
2049;SDS011;8478;49.208;8.806;2023-08-06T15:15:43;3.10;;;2.90;;
2049;SDS011;8478;49.208;8.806;2023-08-06T15:18:11;4.60;;;2.80;;
2049;SDS011;8478;49.208;8.806;2023-08-06T15:20:36;3.43;;;3.07;;
2049;SDS011;8478;49.208;8.806;2023-08-06T15:23:02;2.87;;;2.67;;
2049;SDS011;8478;49.208;8.806;2023-08-06T15:25:28;3.80;;;2.90;;
2049;SDS011;8478;49.208;8.806;2023-08-06T15:27:53;3.20;;;3.00;;
2049;SDS011;8478;49.208;8.806;2023-08-06T15:30:19;3.03;;;2.83;;